sensor_id;sensor_type;location;lat;lon;timestamp;temperature;humidity
1307;DHT22;646;48.696;9.114;2023-02-22T00:01:14;4.60;99.90
1307;DHT22;646;48.696;9.114;2023-02-22T00:03:59;4.80;99.90
1307;DHT22;646;48.696;9.114;2023-02-22T00:06:25;4.70;99.90
1307;DHT22;646;48.696;9.114;2023-02-22T00:08:51;4.40;99.90
1307;DHT22;646;48.696;9.114;2023-02-22T00:11:17;4.50;99.90
1307;DHT22;646;48.696;9.114;2023-02-22T00:13:42;4.50;99.90
1307;DHT22;646;48.696;9.114;2023-02-22T00:16:13;4.70;99.90
1307;DHT22;646;48.696;9.114;2023-02-22T00:18:39;4.60;99.90
1307;DHT22;646;48.696;9.114;2023-02-22T00:21:05;4.70;99.90
1307;DHT22;646;48.696;9.114;2023-02-22T00:23:35;4.50;99.90
1307;DHT22;646;48.696;9.114;2023-02-22T00:26:05;4.60;99.90
1307;DHT22;646;48.696;9.114;2023-02-22T00:28:35;4.70;99.90
1307;DHT22;646;48.696;9.114;2023-02-22T00:31:01;4.50;99.90
1307;DHT22;646;48.696;9.114;2023-02-22T00:33:27;4.60;99.90
1307;DHT22;646;48.696;9.114;2023-02-22T00:35:52;4.50;99.90
1307;DHT22;646;48.696;9.114;2023-02-22T00:38:18;4.50;99.90
1307;DHT22;646;48.696;9.114;2023-02-22T00:40:44;4.20;99.90
1307;DHT22;646;48.696;9.114;2023-02-22T00:43:09;4.30;99.90
1307;DHT22;646;48.696;9.114;2023-02-22T00:45:36;4.50;99.90
1307;DHT22;646;48.696;9.114;2023-02-22T00:48:03;4.60;99.90
1307;DHT22;646;48.696;9.114;2023-02-22T00:50:30;4.40;99.90
1307;DHT22;646;48.696;9.114;2023-02-22T00:52:56;4.10;99.90
1307;DHT22;646;48.696;9.114;2023-02-22T00:55:27;4.20;99.90
1307;DHT22;646;48.696;9.114;2023-02-22T00:57:54;4.10;99.90
1307;DHT22;646;48.696;9.114;2023-02-22T01:00:25;4.40;99.90
1307;DHT22;646;48.696;9.114;2023-02-22T01:02:50;4.30;99.90
1307;DHT22;646;48.696;9.114;2023-02-22T01:05:19;4.40;99.90
1307;DHT22;646;48.696;9.114;2023-02-22T01:07:45;3.90;99.90
1307;DHT22;646;48.696;9.114;2023-02-22T01:10:11;4.00;99.90
1307;DHT22;646;48.696;9.114;2023-02-22T01:12:37;4.00;99.90
1307;DHT22;646;48.696;9.114;2023-02-22T01:15:04;4.10;99.90
1307;DHT22;646;48.696;9.114;2023-02-22T01:17:30;3.80;99.90
1307;DHT22;646;48.696;9.114;2023-02-22T01:19:56;4.00;99.90
1307;DHT22;646;48.696;9.114;2023-02-22T01:22:22;3.80;99.90
1307;DHT22;646;48.696;9.114;2023-02-22T01:24:48;3.80;99.90
1307;DHT22;646;48.696;9.114;2023-02-22T01:27:14;3.70;99.90
1307;DHT22;646;48.696;9.114;2023-02-22T01:29:40;3.80;99.90
1307;DHT22;646;48.696;9.114;2023-02-22T01:32:06;4.10;99.90
1307;DHT22;646;48.696;9.114;2023-02-22T01:34:32;3.80;99.90
1307;DHT22;646;48.696;9.114;2023-02-22T01:36:58;3.70;99.90
1307;DHT22;646;48.696;9.114;2023-02-22T01:39:24;4.00;99.90
1307;DHT22;646;48.696;9.114;2023-02-22T01:41:50;3.70;99.90
1307;DHT22;646;48.696;9.114;2023-02-22T01:44:33;3.80;99.90
1307;DHT22;646;48.696;9.114;2023-02-22T01:47:01;3.70;99.90
1307;DHT22;646;48.696;9.114;2023-02-22T01:49:39;4.10;99.90
1307;DHT22;646;48.696;9.114;2023-02-22T01:52:09;4.10;99.90
1307;DHT22;646;48.696;9.114;2023-02-22T01:54:46;3.90;99.90
1307;DHT22;646;48.696;9.114;2023-02-22T01:57:22;4.00;99.90
1307;DHT22;646;48.696;9.114;2023-02-22T01:59:51;3.60;99.90
1307;DHT22;646;48.696;9.114;2023-02-22T02:02:18;3.60;99.90
1307;DHT22;646;48.696;9.114;2023-02-22T02:04:46;3.70;99.90
1307;DHT22;646;48.696;9.114;2023-02-22T02:07:14;3.60;99.90
1307;DHT22;646;48.696;9.114;2023-02-22T02:09:56;3.60;99.90
1307;DHT22;646;48.696;9.114;2023-02-22T02:12:22;3.90;99.90
1307;DHT22;646;48.696;9.114;2023-02-22T02:14:48;3.60;99.90
1307;DHT22;646;48.696;9.114;2023-02-22T02:17:16;3.40;99.90
1307;DHT22;646;48.696;9.114;2023-02-22T02:20:02;3.60;99.90
1307;DHT22;646;48.696;9.114;2023-02-22T02:26:06;3.90;99.90
1307;DHT22;646;48.696;9.114;2023-02-22T02:29:14;3.70;99.90
1307;DHT22;646;48.696;9.114;2023-02-22T02:31:58;3.80;99.90
1307;DHT22;646;48.696;9.114;2023-02-22T02:34:53;3.50;99.90
1307;DHT22;646;48.696;9.114;2023-02-22T02:40:31;3.50;99.90
1307;DHT22;646;48.696;9.114;2023-02-22T02:43:13;3.80;99.90
1307;DHT22;646;48.696;9.114;2023-02-22T02:45:46;3.60;99.90
1307;DHT22;646;48.696;9.114;2023-02-22T02:48:14;3.50;99.90
1307;DHT22;646;48.696;9.114;2023-02-22T02:50:47;3.50;99.90
1307;DHT22;646;48.696;9.114;2023-02-22T02:53:16;3.80;99.90
1307;DHT22;646;48.696;9.114;2023-02-22T02:55:43;3.80;99.90
1307;DHT22;646;48.696;9.114;2023-02-22T02:58:18;3.40;99.90
1307;DHT22;646;48.696;9.114;2023-02-22T03:00:45;3.60;99.90
1307;DHT22;646;48.696;9.114;2023-02-22T03:03:23;3.70;99.90
1307;DHT22;646;48.696;9.114;2023-02-22T03:08:56;3.40;99.90
1307;DHT22;646;48.696;9.114;2023-02-22T03:11:38;3.40;99.90
1307;DHT22;646;48.696;9.114;2023-02-22T03:14:15;3.60;99.90
1307;DHT22;646;48.696;9.114;2023-02-22T03:16:58;3.50;99.90
1307;DHT22;646;48.696;9.114;2023-02-22T03:19:39;3.50;99.90
1307;DHT22;646;48.696;9.114;2023-02-22T03:27:44;3.20;99.90
1307;DHT22;646;48.696;9.114;2023-02-22T03:30:18;3.40;99.90
1307;DHT22;646;48.696;9.114;2023-02-22T03:32:51;3.10;99.90
1307;DHT22;646;48.696;9.114;2023-02-22T03:35:22;3.30;99.90
1307;DHT22;646;48.696;9.114;2023-02-22T03:37:53;3.30;99.90
1307;DHT22;646;48.696;9.114;2023-02-22T03:40:35;3.20;99.90
1307;DHT22;646;48.696;9.114;2023-02-22T03:43:53;3.20;99.90
1307;DHT22;646;48.696;9.114;2023-02-22T03:46:00;3.20;99.90
1307;DHT22;646;48.696;9.114;2023-02-22T03:48:45;3.40;99.90
1307;DHT22;646;48.696;9.114;2023-02-22T03:51:15;3.10;99.90
1307;DHT22;646;48.696;9.114;2023-02-22T03:53:42;3.10;99.90
1307;DHT22;646;48.696;9.114;2023-02-22T03:56:17;2.90;99.90
1307;DHT22;646;48.696;9.114;2023-02-22T03:58:45;3.10;99.90
1307;DHT22;646;48.696;9.114;2023-02-22T04:01:12;3.00;99.90
1307;DHT22;646;48.696;9.114;2023-02-22T04:03:38;3.00;99.90
1307;DHT22;646;48.696;9.114;2023-02-22T04:06:04;2.90;99.90
1307;DHT22;646;48.696;9.114;2023-02-22T04:08:30;3.00;99.90
1307;DHT22;646;48.696;9.114;2023-02-22T04:10:56;2.90;99.90
1307;DHT22;646;48.696;9.114;2023-02-22T04:13:21;2.80;99.90
1307;DHT22;646;48.696;9.114;2023-02-22T04:15:47;3.00;99.90
1307;DHT22;646;48.696;9.114;2023-02-22T04:18:12;2.90;99.90
1307;DHT22;646;48.696;9.114;2023-02-22T04:20:38;2.90;99.90
1307;DHT22;646;48.696;9.114;2023-02-22T04:23:04;2.80;99.90
1307;DHT22;646;48.696;9.114;2023-02-22T04:25:29;2.70;99.90
1307;DHT22;646;48.696;9.114;2023-02-22T04:27:55;2.80;99.90
1307;DHT22;646;48.696;9.114;2023-02-22T04:30:21;2.90;99.90
1307;DHT22;646;48.696;9.114;2023-02-22T04:32:47;2.70;99.90
1307;DHT22;646;48.696;9.114;2023-02-22T04:35:12;2.80;99.90
1307;DHT22;646;48.696;9.114;2023-02-22T04:37:38;2.70;99.90
1307;DHT22;646;48.696;9.114;2023-02-22T04:40:05;2.60;99.90
1307;DHT22;646;48.696;9.114;2023-02-22T04:42:36;2.50;99.90
1307;DHT22;646;48.696;9.114;2023-02-22T04:45:03;2.60;99.90
1307;DHT22;646;48.696;9.114;2023-02-22T04:47:28;2.70;99.90
1307;DHT22;646;48.696;9.114;2023-02-22T04:49:54;2.50;99.90
1307;DHT22;646;48.696;9.114;2023-02-22T04:52:20;2.60;99.90
1307;DHT22;646;48.696;9.114;2023-02-22T04:54:45;2.60;99.90
1307;DHT22;646;48.696;9.114;2023-02-22T04:57:11;2.60;99.90
1307;DHT22;646;48.696;9.114;2023-02-22T04:59:36;2.60;99.90
1307;DHT22;646;48.696;9.114;2023-02-22T05:02:02;2.50;99.90
1307;DHT22;646;48.696;9.114;2023-02-22T05:04:28;2.60;99.90
1307;DHT22;646;48.696;9.114;2023-02-22T05:06:54;2.80;99.90
1307;DHT22;646;48.696;9.114;2023-02-22T05:09:20;2.20;99.90
1307;DHT22;646;48.696;9.114;2023-02-22T05:11:45;2.40;99.90
1307;DHT22;646;48.696;9.114;2023-02-22T05:14:11;2.50;99.90
1307;DHT22;646;48.696;9.114;2023-02-22T05:16:37;2.60;99.90
1307;DHT22;646;48.696;9.114;2023-02-22T05:19:02;2.60;99.90
1307;DHT22;646;48.696;9.114;2023-02-22T05:21:28;2.60;99.90
1307;DHT22;646;48.696;9.114;2023-02-22T05:23:53;2.50;99.90
1307;DHT22;646;48.696;9.114;2023-02-22T05:26:19;2.70;99.90
1307;DHT22;646;48.696;9.114;2023-02-22T05:28:44;2.70;99.90
1307;DHT22;646;48.696;9.114;2023-02-22T05:31:10;2.60;99.90
1307;DHT22;646;48.696;9.114;2023-02-22T05:33:35;2.70;99.90
1307;DHT22;646;48.696;9.114;2023-02-22T05:36:01;2.40;99.90
1307;DHT22;646;48.696;9.114;2023-02-22T05:38:27;2.80;99.90
1307;DHT22;646;48.696;9.114;2023-02-22T05:40:53;2.70;99.90
1307;DHT22;646;48.696;9.114;2023-02-22T05:43:18;2.40;99.90
1307;DHT22;646;48.696;9.114;2023-02-22T05:45:44;2.50;99.90
1307;DHT22;646;48.696;9.114;2023-02-22T05:48:10;2.60;99.90
1307;DHT22;646;48.696;9.114;2023-02-22T05:50:37;2.70;99.90
1307;DHT22;646;48.696;9.114;2023-02-22T05:53:02;2.70;99.90
1307;DHT22;646;48.696;9.114;2023-02-22T05:55:29;2.60;99.90
1307;DHT22;646;48.696;9.114;2023-02-22T05:57:55;2.80;99.90
1307;DHT22;646;48.696;9.114;2023-02-22T06:00:29;2.70;99.90
1307;DHT22;646;48.696;9.114;2023-02-22T06:02:57;2.80;99.90
1307;DHT22;646;48.696;9.114;2023-02-22T06:05:23;2.80;99.90
1307;DHT22;646;48.696;9.114;2023-02-22T06:07:49;2.80;99.90
1307;DHT22;646;48.696;9.114;2023-02-22T06:10:15;2.80;99.90
1307;DHT22;646;48.696;9.114;2023-02-22T06:12:41;2.50;99.90
1307;DHT22;646;48.696;9.114;2023-02-22T06:15:06;2.50;99.90
1307;DHT22;646;48.696;9.114;2023-02-22T06:17:32;2.50;99.90
1307;DHT22;646;48.696;9.114;2023-02-22T06:19:57;2.70;99.90
1307;DHT22;646;48.696;9.114;2023-02-22T06:22:23;2.70;99.90
1307;DHT22;646;48.696;9.114;2023-02-22T06:24:48;2.80;99.90
1307;DHT22;646;48.696;9.114;2023-02-22T06:27:14;2.70;99.90
1307;DHT22;646;48.696;9.114;2023-02-22T06:29:43;2.70;99.90
1307;DHT22;646;48.696;9.114;2023-02-22T06:32:09;2.80;99.90
1307;DHT22;646;48.696;9.114;2023-02-22T06:34:34;2.80;99.90
1307;DHT22;646;48.696;9.114;2023-02-22T06:37:00;2.80;99.90
1307;DHT22;646;48.696;9.114;2023-02-22T06:39:25;2.50;99.90
1307;DHT22;646;48.696;9.114;2023-02-22T06:41:51;2.90;99.90
1307;DHT22;646;48.696;9.114;2023-02-22T06:44:18;2.70;99.90
1307;DHT22;646;48.696;9.114;2023-02-22T06:46:48;2.60;99.90
1307;DHT22;646;48.696;9.114;2023-02-22T06:49:18;3.00;99.90
1307;DHT22;646;48.696;9.114;2023-02-22T06:51:44;3.00;99.90
1307;DHT22;646;48.696;9.114;2023-02-22T06:54:10;3.00;99.90
1307;DHT22;646;48.696;9.114;2023-02-22T06:56:36;2.80;99.90
1307;DHT22;646;48.696;9.114;2023-02-22T06:59:01;3.00;99.90
1307;DHT22;646;48.696;9.114;2023-02-22T07:01:27;3.20;99.90
1307;DHT22;646;48.696;9.114;2023-02-22T07:03:53;3.30;99.90
1307;DHT22;646;48.696;9.114;2023-02-22T07:06:19;3.30;99.90
1307;DHT22;646;48.696;9.114;2023-02-22T07:08:44;3.50;99.90
1307;DHT22;646;48.696;9.114;2023-02-22T07:11:10;3.50;99.90
1307;DHT22;646;48.696;9.114;2023-02-22T07:13:35;3.60;99.90
1307;DHT22;646;48.696;9.114;2023-02-22T07:16:01;3.70;99.90
1307;DHT22;646;48.696;9.114;2023-02-22T07:18:26;3.90;99.90
1307;DHT22;646;48.696;9.114;2023-02-22T07:20:52;3.90;99.90
1307;DHT22;646;48.696;9.114;2023-02-22T07:23:19;4.10;99.90
1307;DHT22;646;48.696;9.114;2023-02-22T07:25:45;4.00;99.90
1307;DHT22;646;48.696;9.114;2023-02-22T07:28:11;4.30;99.90
1307;DHT22;646;48.696;9.114;2023-02-22T07:30:36;4.50;99.90
1307;DHT22;646;48.696;9.114;2023-02-22T07:33:07;4.60;99.90
1307;DHT22;646;48.696;9.114;2023-02-22T07:35:35;4.80;99.90
1307;DHT22;646;48.696;9.114;2023-02-22T07:38:02;4.80;99.90
1307;DHT22;646;48.696;9.114;2023-02-22T07:40:28;5.00;99.90
1307;DHT22;646;48.696;9.114;2023-02-22T07:42:58;5.30;99.90
1307;DHT22;646;48.696;9.114;2023-02-22T07:45:27;5.30;99.90
1307;DHT22;646;48.696;9.114;2023-02-22T07:47:53;5.60;99.90
1307;DHT22;646;48.696;9.114;2023-02-22T07:50:21;6.10;99.90
1307;DHT22;646;48.696;9.114;2023-02-22T07:52:49;6.10;99.90
1307;DHT22;646;48.696;9.114;2023-02-22T07:55:18;6.50;99.90
1307;DHT22;646;48.696;9.114;2023-02-22T07:57:48;6.60;99.90
1307;DHT22;646;48.696;9.114;2023-02-22T08:00:15;6.90;99.90
1307;DHT22;646;48.696;9.114;2023-02-22T08:02:42;7.00;99.90
1307;DHT22;646;48.696;9.114;2023-02-22T08:05:09;7.20;99.90
1307;DHT22;646;48.696;9.114;2023-02-22T08:07:36;7.60;99.90
1307;DHT22;646;48.696;9.114;2023-02-22T08:10:03;7.80;99.90
1307;DHT22;646;48.696;9.114;2023-02-22T08:12:31;7.70;99.90
1307;DHT22;646;48.696;9.114;2023-02-22T08:14:57;8.30;99.90
1307;DHT22;646;48.696;9.114;2023-02-22T08:17:22;8.50;99.90
1307;DHT22;646;48.696;9.114;2023-02-22T08:19:48;8.50;99.90
1307;DHT22;646;48.696;9.114;2023-02-22T08:22:13;8.80;99.90
1307;DHT22;646;48.696;9.114;2023-02-22T08:24:39;8.90;99.90
1307;DHT22;646;48.696;9.114;2023-02-22T08:27:05;9.10;99.90
1307;DHT22;646;48.696;9.114;2023-02-22T08:29:30;9.10;99.90
1307;DHT22;646;48.696;9.114;2023-02-22T08:32:01;9.20;99.90
1307;DHT22;646;48.696;9.114;2023-02-22T08:34:26;9.60;99.90
1307;DHT22;646;48.696;9.114;2023-02-22T08:36:52;9.60;99.90
1307;DHT22;646;48.696;9.114;2023-02-22T08:39:18;9.90;99.90
1307;DHT22;646;48.696;9.114;2023-02-22T08:41:43;10.00;99.90
1307;DHT22;646;48.696;9.114;2023-02-22T08:44:09;10.40;99.90
1307;DHT22;646;48.696;9.114;2023-02-22T08:46:34;10.70;99.90
1307;DHT22;646;48.696;9.114;2023-02-22T08:49:00;11.40;99.90
1307;DHT22;646;48.696;9.114;2023-02-22T08:51:27;12.50;99.90
1307;DHT22;646;48.696;9.114;2023-02-22T08:53:53;13.40;99.90
1307;DHT22;646;48.696;9.114;2023-02-22T08:56:19;14.50;99.90
1307;DHT22;646;48.696;9.114;2023-02-22T08:58:45;15.20;99.90
1307;DHT22;646;48.696;9.114;2023-02-22T09:01:10;16.10;96.00
1307;DHT22;646;48.696;9.114;2023-02-22T09:03:36;17.30;92.80
1307;DHT22;646;48.696;9.114;2023-02-22T09:06:03;19.10;80.40
1307;DHT22;646;48.696;9.114;2023-02-22T09:08:29;20.40;67.70
1307;DHT22;646;48.696;9.114;2023-02-22T09:10:54;21.70;60.40
1307;DHT22;646;48.696;9.114;2023-02-22T09:13:20;23.00;54.20
1307;DHT22;646;48.696;9.114;2023-02-22T09:15:45;24.10;47.40
1307;DHT22;646;48.696;9.114;2023-02-22T09:18:12;24.90;41.40
1307;DHT22;646;48.696;9.114;2023-02-22T09:20:39;26.20;38.10
1307;DHT22;646;48.696;9.114;2023-02-22T09:23:05;27.00;34.90
1307;DHT22;646;48.696;9.114;2023-02-22T09:25:31;27.10;32.50
1307;DHT22;646;48.696;9.114;2023-02-22T09:27:58;27.00;31.60
1307;DHT22;646;48.696;9.114;2023-02-22T09:30:29;26.40;31.50
1307;DHT22;646;48.696;9.114;2023-02-22T09:33:10;26.80;31.20
1307;DHT22;646;48.696;9.114;2023-02-22T09:35:37;26.30;30.00
1307;DHT22;646;48.696;9.114;2023-02-22T09:38:06;26.30;30.00
1307;DHT22;646;48.696;9.114;2023-02-22T09:40:35;26.40;29.90
1307;DHT22;646;48.696;9.114;2023-02-22T09:43:44;26.60;29.80
1307;DHT22;646;48.696;9.114;2023-02-22T09:48:59;27.30;28.70
1307;DHT22;646;48.696;9.114;2023-02-22T09:51:31;27.60;28.70
1307;DHT22;646;48.696;9.114;2023-02-22T09:54:02;28.00;28.20
1307;DHT22;646;48.696;9.114;2023-02-22T09:56:29;28.50;28.00
1307;DHT22;646;48.696;9.114;2023-02-22T09:59:00;28.90;26.20
1307;DHT22;646;48.696;9.114;2023-02-22T10:01:37;29.10;26.70
1307;DHT22;646;48.696;9.114;2023-02-22T10:07:23;29.50;25.50
1307;DHT22;646;48.696;9.114;2023-02-22T10:09:51;30.00;25.80
1307;DHT22;646;48.696;9.114;2023-02-22T10:12:41;30.40;25.00
1307;DHT22;646;48.696;9.114;2023-02-22T10:15:33;30.70;24.40
1307;DHT22;646;48.696;9.114;2023-02-22T10:21:22;31.90;23.30
1307;DHT22;646;48.696;9.114;2023-02-22T10:26:40;33.30;22.60
1307;DHT22;646;48.696;9.114;2023-02-22T10:29:46;33.10;22.10
1307;DHT22;646;48.696;9.114;2023-02-22T10:32:22;32.60;22.70
1307;DHT22;646;48.696;9.114;2023-02-22T10:34:50;31.90;22.80
1307;DHT22;646;48.696;9.114;2023-02-22T10:37:28;31.10;24.10
1307;DHT22;646;48.696;9.114;2023-02-22T10:40:14;30.90;24.60
1307;DHT22;646;48.696;9.114;2023-02-22T10:42:45;30.60;24.60
1307;DHT22;646;48.696;9.114;2023-02-22T10:45:23;29.70;25.40
1307;DHT22;646;48.696;9.114;2023-02-22T10:47:50;29.50;26.10
1307;DHT22;646;48.696;9.114;2023-02-22T10:50:18;28.90;25.80
1307;DHT22;646;48.696;9.114;2023-02-22T10:52:45;28.90;26.20
1307;DHT22;646;48.696;9.114;2023-02-22T10:55:13;29.00;26.60
1307;DHT22;646;48.696;9.114;2023-02-22T10:57:40;29.20;26.10
1307;DHT22;646;48.696;9.114;2023-02-22T11:00:19;29.10;25.80
1307;DHT22;646;48.696;9.114;2023-02-22T11:02:53;29.10;25.90
1307;DHT22;646;48.696;9.114;2023-02-22T11:05:35;29.40;26.30
1307;DHT22;646;48.696;9.114;2023-02-22T11:10:48;28.40;26.00
1307;DHT22;646;48.696;9.114;2023-02-22T11:13:18;27.00;27.20
1307;DHT22;646;48.696;9.114;2023-02-22T11:15:50;25.90;28.60
1307;DHT22;646;48.696;9.114;2023-02-22T11:18:33;25.50;29.60
1307;DHT22;646;48.696;9.114;2023-02-22T11:21:05;24.40;29.90
1307;DHT22;646;48.696;9.114;2023-02-22T11:23:33;24.10;30.90
1307;DHT22;646;48.696;9.114;2023-02-22T11:26:02;23.50;32.00
1307;DHT22;646;48.696;9.114;2023-02-22T11:28:30;23.30;32.70
1307;DHT22;646;48.696;9.114;2023-02-22T11:31:09;23.90;32.80
1307;DHT22;646;48.696;9.114;2023-02-22T11:33:35;24.60;31.40
1307;DHT22;646;48.696;9.114;2023-02-22T11:36:03;24.40;30.40
1307;DHT22;646;48.696;9.114;2023-02-22T11:38:37;24.30;31.10
1307;DHT22;646;48.696;9.114;2023-02-22T11:41:15;24.20;32.40
1307;DHT22;646;48.696;9.114;2023-02-22T11:43:46;24.30;32.20
1307;DHT22;646;48.696;9.114;2023-02-22T11:46:23;24.40;32.30
1307;DHT22;646;48.696;9.114;2023-02-22T11:49:04;23.60;32.00
1307;DHT22;646;48.696;9.114;2023-02-22T11:54:31;22.50;33.80
1307;DHT22;646;48.696;9.114;2023-02-22T12:06:26;20.70;38.30
1307;DHT22;646;48.696;9.114;2023-02-22T12:09:16;21.70;38.70
1307;DHT22;646;48.696;9.114;2023-02-22T12:14:50;22.10;36.20
1307;DHT22;646;48.696;9.114;2023-02-22T12:17:49;22.40;36.90
1307;DHT22;646;48.696;9.114;2023-02-22T12:20:23;23.00;36.50
1307;DHT22;646;48.696;9.114;2023-02-22T12:23:21;24.00;35.70
1307;DHT22;646;48.696;9.114;2023-02-22T12:26:01;24.60;35.30
1307;DHT22;646;48.696;9.114;2023-02-22T12:28:39;26.20;33.60
1307;DHT22;646;48.696;9.114;2023-02-22T12:31:19;26.70;31.30
1307;DHT22;646;48.696;9.114;2023-02-22T12:33:51;27.40;31.40
1307;DHT22;646;48.696;9.114;2023-02-22T12:36:23;28.10;29.40
1307;DHT22;646;48.696;9.114;2023-02-22T12:38:56;27.90;28.90
1307;DHT22;646;48.696;9.114;2023-02-22T12:41:55;27.60;29.40
1307;DHT22;646;48.696;9.114;2023-02-22T12:44:32;27.00;29.50
1307;DHT22;646;48.696;9.114;2023-02-22T12:46:59;26.10;30.80
1307;DHT22;646;48.696;9.114;2023-02-22T12:49:37;25.70;31.50
1307;DHT22;646;48.696;9.114;2023-02-22T12:52:39;25.80;32.30
1307;DHT22;646;48.696;9.114;2023-02-22T12:57:48;25.40;32.60
1307;DHT22;646;48.696;9.114;2023-02-22T13:00:24;25.30;33.10
1307;DHT22;646;48.696;9.114;2023-02-22T13:05:33;26.50;31.50
1307;DHT22;646;48.696;9.114;2023-02-22T13:11:13;27.90;29.30
1307;DHT22;646;48.696;9.114;2023-02-22T13:16:46;30.00;27.60
1307;DHT22;646;48.696;9.114;2023-02-22T13:22:19;30.90;26.60
1307;DHT22;646;48.696;9.114;2023-02-22T13:29:59;30.70;26.60
1307;DHT22;646;48.696;9.114;2023-02-22T13:32:51;30.60;26.20
1307;DHT22;646;48.696;9.114;2023-02-22T13:41:40;31.20;25.10
1307;DHT22;646;48.696;9.114;2023-02-22T13:44:41;29.50;26.90
1307;DHT22;646;48.696;9.114;2023-02-22T13:52:46;26.70;29.30
1307;DHT22;646;48.696;9.114;2023-02-22T13:55:19;25.80;30.40
1307;DHT22;646;48.696;9.114;2023-02-22T13:57:47;25.10;31.80
1307;DHT22;646;48.696;9.114;2023-02-22T14:03:08;23.80;33.80
1307;DHT22;646;48.696;9.114;2023-02-22T14:13:22;21.80;36.90
1307;DHT22;646;48.696;9.114;2023-02-22T14:18:27;21.00;38.50
1307;DHT22;646;48.696;9.114;2023-02-22T14:21:11;20.50;39.20
1307;DHT22;646;48.696;9.114;2023-02-22T14:23:37;20.30;39.80
1307;DHT22;646;48.696;9.114;2023-02-22T14:28:49;19.70;40.20
1307;DHT22;646;48.696;9.114;2023-02-22T14:31:18;19.30;40.40
1307;DHT22;646;48.696;9.114;2023-02-22T14:36:26;18.40;42.20
1307;DHT22;646;48.696;9.114;2023-02-22T14:38:56;18.20;43.10
1307;DHT22;646;48.696;9.114;2023-02-22T14:41:26;17.80;43.70
1307;DHT22;646;48.696;9.114;2023-02-22T14:43:54;18.10;44.70
1307;DHT22;646;48.696;9.114;2023-02-22T14:46:23;17.70;45.20
1307;DHT22;646;48.696;9.114;2023-02-22T14:48:55;17.70;45.90
1307;DHT22;646;48.696;9.114;2023-02-22T14:51:26;17.50;46.50
1307;DHT22;646;48.696;9.114;2023-02-22T14:54:05;17.50;46.80
1307;DHT22;646;48.696;9.114;2023-02-22T14:57:03;17.70;46.20
1307;DHT22;646;48.696;9.114;2023-02-22T15:00:19;17.60;46.00
1307;DHT22;646;48.696;9.114;2023-02-22T15:02:48;17.30;46.20
1307;DHT22;646;48.696;9.114;2023-02-22T15:05:16;17.30;46.70
1307;DHT22;646;48.696;9.114;2023-02-22T15:12:55;16.90;48.70
1307;DHT22;646;48.696;9.114;2023-02-22T15:15:43;16.40;49.30
1307;DHT22;646;48.696;9.114;2023-02-22T15:21:09;16.00;50.00
1307;DHT22;646;48.696;9.114;2023-02-22T15:24:07;16.20;50.40
1307;DHT22;646;48.696;9.114;2023-02-22T15:26:36;15.80;50.70
1307;DHT22;646;48.696;9.114;2023-02-22T15:29:17;15.50;51.30
1307;DHT22;646;48.696;9.114;2023-02-22T15:31:43;15.70;51.50
1307;DHT22;646;48.696;9.114;2023-02-22T15:36:40;15.60;52.60
1307;DHT22;646;48.696;9.114;2023-02-22T15:39:20;15.30;52.90
1307;DHT22;646;48.696;9.114;2023-02-22T15:42:03;14.90;53.70
1307;DHT22;646;48.696;9.114;2023-02-22T15:44:40;15.10;54.10
1307;DHT22;646;48.696;9.114;2023-02-22T15:47:11;14.90;54.40
1307;DHT22;646;48.696;9.114;2023-02-22T15:49:40;14.80;54.60
1307;DHT22;646;48.696;9.114;2023-02-22T15:52:20;14.70;55.30
1307;DHT22;646;48.696;9.114;2023-02-22T15:54:49;14.70;56.00
1307;DHT22;646;48.696;9.114;2023-02-22T15:57:19;14.50;55.50
1307;DHT22;646;48.696;9.114;2023-02-22T15:59:56;14.60;55.90
1307;DHT22;646;48.696;9.114;2023-02-22T16:02:34;14.70;56.60
1307;DHT22;646;48.696;9.114;2023-02-22T16:05:08;14.40;57.20
1307;DHT22;646;48.696;9.114;2023-02-22T16:07:43;14.30;57.20
1307;DHT22;646;48.696;9.114;2023-02-22T16:10:26;14.20;57.00
1307;DHT22;646;48.696;9.114;2023-02-22T16:13:17;14.10;57.40
1307;DHT22;646;48.696;9.114;2023-02-22T16:15:59;14.10;57.90
1307;DHT22;646;48.696;9.114;2023-02-22T16:18:29;14.20;58.60
1307;DHT22;646;48.696;9.114;2023-02-22T16:21:10;14.10;59.00
1307;DHT22;646;48.696;9.114;2023-02-22T16:23:50;13.60;59.10
1307;DHT22;646;48.696;9.114;2023-02-22T16:26:47;13.90;59.80
1307;DHT22;646;48.696;9.114;2023-02-22T16:29:25;13.50;59.30
1307;DHT22;646;48.696;9.114;2023-02-22T16:31:51;13.70;59.80
1307;DHT22;646;48.696;9.114;2023-02-22T16:34:16;13.30;59.90
1307;DHT22;646;48.696;9.114;2023-02-22T16:36:44;13.50;60.40
1307;DHT22;646;48.696;9.114;2023-02-22T16:39:26;13.20;61.30
1307;DHT22;646;48.696;9.114;2023-02-22T16:41:59;13.20;61.20
1307;DHT22;646;48.696;9.114;2023-02-22T16:44:26;13.00;61.70
1307;DHT22;646;48.696;9.114;2023-02-22T16:46:52;13.00;61.70
1307;DHT22;646;48.696;9.114;2023-02-22T16:49:19;13.00;62.70
1307;DHT22;646;48.696;9.114;2023-02-22T16:52:05;13.00;62.50
1307;DHT22;646;48.696;9.114;2023-02-22T16:54:38;12.90;63.10
1307;DHT22;646;48.696;9.114;2023-02-22T16:57:05;12.90;63.20
1307;DHT22;646;48.696;9.114;2023-02-22T16:59:36;13.00;64.10
1307;DHT22;646;48.696;9.114;2023-02-22T17:02:02;12.50;63.90
1307;DHT22;646;48.696;9.114;2023-02-22T17:04:32;12.80;64.50
1307;DHT22;646;48.696;9.114;2023-02-22T17:06:57;12.60;64.60
1307;DHT22;646;48.696;9.114;2023-02-22T17:09:23;12.50;64.70
1307;DHT22;646;48.696;9.114;2023-02-22T17:11:50;12.50;65.30
1307;DHT22;646;48.696;9.114;2023-02-22T17:14:19;12.50;66.00
1307;DHT22;646;48.696;9.114;2023-02-22T17:16:51;12.40;66.90
1307;DHT22;646;48.696;9.114;2023-02-22T17:19:19;12.20;67.00
1307;DHT22;646;48.696;9.114;2023-02-22T17:21:48;11.70;66.00
1307;DHT22;646;48.696;9.114;2023-02-22T17:24:17;11.60;67.30
1307;DHT22;646;48.696;9.114;2023-02-22T17:26:44;11.50;67.90
1307;DHT22;646;48.696;9.114;2023-02-22T17:29:09;11.50;67.90
1307;DHT22;646;48.696;9.114;2023-02-22T17:31:35;11.50;68.70
1307;DHT22;646;48.696;9.114;2023-02-22T17:34:02;11.30;69.40
1307;DHT22;646;48.696;9.114;2023-02-22T17:36:30;11.20;70.70
1307;DHT22;646;48.696;9.114;2023-02-22T17:38:56;11.20;71.50
1307;DHT22;646;48.696;9.114;2023-02-22T17:41:22;11.20;71.90
1307;DHT22;646;48.696;9.114;2023-02-22T17:43:47;11.30;72.30
1307;DHT22;646;48.696;9.114;2023-02-22T17:46:13;11.10;73.60
1307;DHT22;646;48.696;9.114;2023-02-22T17:48:39;11.20;73.20
1307;DHT22;646;48.696;9.114;2023-02-22T17:51:06;11.00;73.30
1307;DHT22;646;48.696;9.114;2023-02-22T17:53:33;10.80;74.00
1307;DHT22;646;48.696;9.114;2023-02-22T17:56:05;10.80;75.40
1307;DHT22;646;48.696;9.114;2023-02-22T17:58:31;10.80;75.10
1307;DHT22;646;48.696;9.114;2023-02-22T18:00:57;10.70;75.90
1307;DHT22;646;48.696;9.114;2023-02-22T18:03:23;10.80;76.70
1307;DHT22;646;48.696;9.114;2023-02-22T18:05:52;10.70;78.70
1307;DHT22;646;48.696;9.114;2023-02-22T18:08:18;10.70;79.50
1307;DHT22;646;48.696;9.114;2023-02-22T18:10:45;10.60;78.90
1307;DHT22;646;48.696;9.114;2023-02-22T18:13:15;10.60;79.80
1307;DHT22;646;48.696;9.114;2023-02-22T18:15:43;10.60;81.30
1307;DHT22;646;48.696;9.114;2023-02-22T18:18:10;10.50;81.80
1307;DHT22;646;48.696;9.114;2023-02-22T18:20:36;10.90;82.90
1307;DHT22;646;48.696;9.114;2023-02-22T18:23:09;10.40;82.20
1307;DHT22;646;48.696;9.114;2023-02-22T18:25:36;10.50;84.20
1307;DHT22;646;48.696;9.114;2023-02-22T18:28:03;10.80;84.00
1307;DHT22;646;48.696;9.114;2023-02-22T18:30:30;10.70;85.00
1307;DHT22;646;48.696;9.114;2023-02-22T18:32:56;10.30;85.90
1307;DHT22;646;48.696;9.114;2023-02-22T18:35:21;10.70;86.20